Woodville, Wisconsin
Current Conditions -  °F | °C
As of 12:15 PM on Friday 31 Oct 2014 (Local Time) from KRNH Reporting Station
Clear Clear  
Wind Chill: 28°   Ceiling: Unl
Heat Index: 36°   Visibility: 10mi
Dew Point: 17°   Wind: 12mph
Humidity: 47%   Direction: 20°NNE
Pressure: 30.54"   Gusts: NA
Location:  44.95°N, 92.29°W
Report Text: KRNH 311715Z AUTO 02010KT 10SM CLR 02/M08 A3054 RMK AO2 T00211082
Loading
Personal Weather Stations






























Interactive Weather Map
Tropical Storm Tracking
New forecast layout! Learn more

10-Day Weather Forecast

Advertisements
Track Severe Weather on mobile